sensor_id;sensor_type;location;lat;lon;timestamp;pressure;altitude;pressure_sealevel;temperature;humidity
53041;BME280;39326;42.650;23.248;2022-09-12T00:01:25;92455.97;;;13.56;81.41
53041;BME280;39326;42.650;23.248;2022-09-12T00:03:56;92456.38;;;13.55;81.07
53041;BME280;39326;42.650;23.248;2022-09-12T00:06:25;92450.72;;;13.46;81.55
53041;BME280;39326;42.650;23.248;2022-09-12T00:08:53;92454.53;;;13.48;80.92
53041;BME280;39326;42.650;23.248;2022-09-12T00:11:19;92450.41;;;13.40;81.71
53041;BME280;39326;42.650;23.248;2022-09-12T00:13:44;92466.19;;;13.35;81.01
53041;BME280;39326;42.650;23.248;2022-09-12T00:16:17;92465.47;;;13.30;80.84
53041;BME280;39326;42.650;23.248;2022-09-12T00:18:44;92465.88;;;13.29;80.56
53041;BME280;39326;42.650;23.248;2022-09-12T00:21:11;92467.09;;;13.24;80.61
53041;BME280;39326;42.650;23.248;2022-09-12T00:23:37;92462.66;;;13.11;80.87
53041;BME280;39326;42.650;23.248;2022-09-12T00:26:04;92467.63;;;13.09;81.36
53041;BME280;39326;42.650;23.248;2022-09-12T00:28:32;92464.19;;;13.08;81.09
53041;BME280;39326;42.650;23.248;2022-09-12T00:30:58;92454.34;;;13.01;81.98
53041;BME280;39326;42.650;23.248;2022-09-12T00:33:23;92448.88;;;13.12;81.07
53041;BME280;39326;42.650;23.248;2022-09-12T00:35:50;92461.41;;;13.19;80.18
53041;BME280;39326;42.650;23.248;2022-09-12T00:38:20;92461.75;;;13.21;80.22
53041;BME280;39326;42.650;23.248;2022-09-12T00:40:46;92458.69;;;13.22;80.27
53041;BME280;39326;42.650;23.248;2022-09-12T00:43:31;92459.09;;;13.21;80.67
53041;BME280;39326;42.650;23.248;2022-09-12T00:46:02;92458.28;;;13.24;79.77
53041;BME280;39326;42.650;23.248;2022-09-12T00:48:34;92463.34;;;13.18;79.79
53041;BME280;39326;42.650;23.248;2022-09-12T00:51:02;92461.50;;;13.12;80.06
53041;BME280;39326;42.650;23.248;2022-09-12T00:53:28;92461.84;;;13.14;78.95
53041;BME280;39326;42.650;23.248;2022-09-12T00:55:54;92458.06;;;13.11;78.68
53041;BME280;39326;42.650;23.248;2022-09-12T00:58:36;92454.97;;;13.13;78.19
53041;BME280;39326;42.650;23.248;2022-09-12T01:01:02;92443.31;;;12.96;78.76
53041;BME280;39326;42.650;23.248;2022-09-12T01:03:28;92448.66;;;12.96;78.70
53041;BME280;39326;42.650;23.248;2022-09-12T01:08:23;92449.91;;;12.88;79.10
53041;BME280;39326;42.650;23.248;2022-09-12T01:10:50;92439.94;;;12.88;78.73
53041;BME280;39326;42.650;23.248;2022-09-12T01:13:15;92437.28;;;12.88;77.71
53041;BME280;39326;42.650;23.248;2022-09-12T01:15:41;92440.00;;;12.85;77.30
53041;BME280;39326;42.650;23.248;2022-09-12T01:20:53;92451.59;;;12.71;78.75
53041;BME280;39326;42.650;23.248;2022-09-12T01:32:42;92440.34;;;12.49;79.24
53041;BME280;39326;42.650;23.248;2022-09-12T01:45:58;92436.53;;;12.46;78.65
53041;BME280;39326;42.650;23.248;2022-09-12T01:48:35;92434.25;;;12.45;78.46
53041;BME280;39326;42.650;23.248;2022-09-12T01:54:15;92425.78;;;12.54;77.44
53041;BME280;39326;42.650;23.248;2022-09-12T01:56:48;92427.78;;;12.42;78.48
53041;BME280;39326;42.650;23.248;2022-09-12T01:59:20;92427.06;;;12.38;78.91
53041;BME280;39326;42.650;23.248;2022-09-12T02:02:12;92429.69;;;12.42;78.23
53041;BME280;39326;42.650;23.248;2022-09-12T02:10:21;92435.06;;;12.38;77.81
53041;BME280;39326;42.650;23.248;2022-09-12T02:13:02;92426.38;;;12.27;78.28
53041;BME280;39326;42.650;23.248;2022-09-12T02:15:35;92433.69;;;12.23;78.71
53041;BME280;39326;42.650;23.248;2022-09-12T02:18:04;92434.19;;;12.11;79.41
53041;BME280;39326;42.650;23.248;2022-09-12T02:20:34;92439.81;;;12.20;78.50
53041;BME280;39326;42.650;23.248;2022-09-12T02:23:05;92435.22;;;12.20;77.95
53041;BME280;39326;42.650;23.248;2022-09-12T02:25:37;92433.34;;;12.17;78.33
53041;BME280;39326;42.650;23.248;2022-09-12T02:28:12;92431.09;;;12.16;78.82
53041;BME280;39326;42.650;23.248;2022-09-12T02:30:46;92434.88;;;12.15;78.14
53041;BME280;39326;42.650;23.248;2022-09-12T02:33:23;92435.28;;;12.17;77.57
53041;BME280;39326;42.650;23.248;2022-09-12T02:36:04;92434.94;;;12.11;78.33
53041;BME280;39326;42.650;23.248;2022-09-12T02:38:43;92431.84;;;12.13;78.46
53041;BME280;39326;42.650;23.248;2022-09-12T02:41:11;92429.16;;;12.16;77.72
53041;BME280;39326;42.650;23.248;2022-09-12T02:43:38;92426.50;;;12.13;78.58
53041;BME280;39326;42.650;23.248;2022-09-12T02:46:09;92428.34;;;12.23;78.00
53041;BME280;39326;42.650;23.248;2022-09-12T02:48:39;92429.22;;;12.09;78.72
53041;BME280;39326;42.650;23.248;2022-09-12T02:51:08;92428.84;;;12.07;79.02
53041;BME280;39326;42.650;23.248;2022-09-12T02:53:35;92424.63;;;12.10;78.50
53041;BME280;39326;42.650;23.248;2022-09-12T02:56:02;92437.59;;;12.11;79.04
53041;BME280;39326;42.650;23.248;2022-09-12T02:58:29;92436.81;;;12.14;79.22
53041;BME280;39326;42.650;23.248;2022-09-12T03:01:29;92433.00;;;12.15;78.98
53041;BME280;39326;42.650;23.248;2022-09-12T03:07:10;92437.94;;;12.17;79.07
53041;BME280;39326;42.650;23.248;2022-09-12T03:23:28;92453.84;;;12.31;78.05
53041;BME280;39326;42.650;23.248;2022-09-12T03:26:02;92447.00;;;12.30;78.07
53041;BME280;39326;42.650;23.248;2022-09-12T03:28:32;92438.16;;;12.33;77.82
53041;BME280;39326;42.650;23.248;2022-09-12T03:30:58;92440.16;;;12.26;77.89
53041;BME280;39326;42.650;23.248;2022-09-12T03:33:25;92445.91;;;12.20;78.62
53041;BME280;39326;42.650;23.248;2022-09-12T03:35:51;92441.03;;;12.15;78.93
53041;BME280;39326;42.650;23.248;2022-09-12T03:38:17;92457.84;;;12.12;79.52
53041;BME280;39326;42.650;23.248;2022-09-12T03:40:43;92436.94;;;12.00;80.21
53041;BME280;39326;42.650;23.248;2022-09-12T03:43:09;92436.44;;;12.12;79.50
53041;BME280;39326;42.650;23.248;2022-09-12T03:45:35;92444.06;;;12.14;79.29
53041;BME280;39326;42.650;23.248;2022-09-12T03:48:02;92436.44;;;12.16;79.10
53041;BME280;39326;42.650;23.248;2022-09-12T03:50:28;92442.81;;;12.26;78.68
53041;BME280;39326;42.650;23.248;2022-09-12T03:52:53;92430.25;;;12.22;78.99
53041;BME280;39326;42.650;23.248;2022-09-12T03:55:19;92427.22;;;12.20;79.09
53041;BME280;39326;42.650;23.248;2022-09-12T03:57:44;92430.31;;;12.15;79.54
53041;BME280;39326;42.650;23.248;2022-09-12T04:00:10;92438.22;;;12.30;78.71
53041;BME280;39326;42.650;23.248;2022-09-12T04:02:36;92440.50;;;12.31;78.78
53041;BME280;39326;42.650;23.248;2022-09-12T04:05:02;92444.28;;;12.34;78.41
53041;BME280;39326;42.650;23.248;2022-09-12T04:07:27;92440.91;;;12.30;78.88
53041;BME280;39326;42.650;23.248;2022-09-12T04:09:53;92450.91;;;12.22;79.33
53041;BME280;39326;42.650;23.248;2022-09-12T04:12:19;92445.22;;;12.16;80.22
53041;BME280;39326;42.650;23.248;2022-09-12T04:14:44;92454.25;;;12.30;78.91
53041;BME280;39326;42.650;23.248;2022-09-12T04:17:10;92456.25;;;12.22;80.12
53041;BME280;39326;42.650;23.248;2022-09-12T04:19:36;92450.03;;;12.32;79.66
53041;BME280;39326;42.650;23.248;2022-09-12T04:22:03;92453.44;;;12.36;79.81
53041;BME280;39326;42.650;23.248;2022-09-12T04:24:29;92452.28;;;12.37;79.37
53041;BME280;39326;42.650;23.248;2022-09-12T04:26:54;92450.75;;;12.36;80.68
53041;BME280;39326;42.650;23.248;2022-09-12T04:29:20;92461.00;;;12.45;80.44
53041;BME280;39326;42.650;23.248;2022-09-12T04:31:46;92460.28;;;12.41;80.20
53041;BME280;39326;42.650;23.248;2022-09-12T04:34:12;92462.47;;;12.53;80.14
53041;BME280;39326;42.650;23.248;2022-09-12T04:36:37;92461.22;;;12.61;79.54
53041;BME280;39326;42.650;23.248;2022-09-12T04:39:05;92464.63;;;12.69;79.02
53041;BME280;39326;42.650;23.248;2022-09-12T04:41:36;92468.78;;;12.73;79.00
53041;BME280;39326;42.650;23.248;2022-09-12T04:44:09;92466.03;;;12.81;78.35
53041;BME280;39326;42.650;23.248;2022-09-12T04:46:37;92468.72;;;12.81;78.54
53041;BME280;39326;42.650;23.248;2022-09-12T04:49:03;92476.34;;;12.82;78.55
53041;BME280;39326;42.650;23.248;2022-09-12T04:51:33;92477.03;;;12.90;78.06
53041;BME280;39326;42.650;23.248;2022-09-12T04:54:06;92471.63;;;12.93;77.86
53041;BME280;39326;42.650;23.248;2022-09-12T04:56:36;92475.81;;;12.98;77.97
53041;BME280;39326;42.650;23.248;2022-09-12T04:59:05;92477.66;;;13.01;77.52
53041;BME280;39326;42.650;23.248;2022-09-12T05:01:33;92472.63;;;13.07;77.04
53041;BME280;39326;42.650;23.248;2022-09-12T05:04:00;92473.41;;;13.07;77.29
53041;BME280;39326;42.650;23.248;2022-09-12T05:06:32;92486.25;;;13.23;77.18
53041;BME280;39326;42.650;23.248;2022-09-12T05:08:59;92481.56;;;13.30;77.70
53041;BME280;39326;42.650;23.248;2022-09-12T05:11:28;92483.72;;;13.39;76.55
53041;BME280;39326;42.650;23.248;2022-09-12T05:13:54;92478.34;;;13.43;76.54
53041;BME280;39326;42.650;23.248;2022-09-12T05:16:21;92472.94;;;13.46;76.13
53041;BME280;39326;42.650;23.248;2022-09-12T05:18:47;92488.91;;;13.53;76.16
53041;BME280;39326;42.650;23.248;2022-09-12T05:21:16;92482.03;;;13.52;76.11
53041;BME280;39326;42.650;23.248;2022-09-12T05:23:42;92477.50;;;13.49;75.53
53041;BME280;39326;42.650;23.248;2022-09-12T05:26:12;92477.31;;;13.64;74.73
53041;BME280;39326;42.650;23.248;2022-09-12T05:28:38;92474.59;;;13.67;74.69
53041;BME280;39326;42.650;23.248;2022-09-12T05:31:07;92481.91;;;13.63;74.87
53041;BME280;39326;42.650;23.248;2022-09-12T05:33:34;92474.09;;;13.72;74.21
53041;BME280;39326;42.650;23.248;2022-09-12T05:36:01;92468.06;;;13.68;74.32
53041;BME280;39326;42.650;23.248;2022-09-12T05:38:26;92470.22;;;13.77;73.95
53041;BME280;39326;42.650;23.248;2022-09-12T05:41:04;92484.78;;;13.76;74.25
53041;BME280;39326;42.650;23.248;2022-09-12T05:43:31;92474.00;;;13.83;74.14
53041;BME280;39326;42.650;23.248;2022-09-12T05:46:05;92476.72;;;14.06;73.19
53041;BME280;39326;42.650;23.248;2022-09-12T05:48:35;92472.44;;;14.13;73.00
53041;BME280;39326;42.650;23.248;2022-09-12T05:51:12;92466.84;;;14.27;73.03
53041;BME280;39326;42.650;23.248;2022-09-12T05:53:39;92468.72;;;14.30;71.64
53041;BME280;39326;42.650;23.248;2022-09-12T05:56:16;92469.06;;;14.32;71.05
53041;BME280;39326;42.650;23.248;2022-09-12T05:58:44;92464.69;;;14.42;71.53
53041;BME280;39326;42.650;23.248;2022-09-12T06:01:12;92451.91;;;14.49;70.84
53041;BME280;39326;42.650;23.248;2022-09-12T06:03:40;92456.75;;;14.58;70.58
53041;BME280;39326;42.650;23.248;2022-09-12T06:06:06;92457.09;;;14.60;69.88
53041;BME280;39326;42.650;23.248;2022-09-12T06:08:33;92450.56;;;14.61;69.55
53041;BME280;39326;42.650;23.248;2022-09-12T06:11:03;92457.84;;;14.60;69.11
53041;BME280;39326;42.650;23.248;2022-09-12T06:13:31;92456.09;;;14.74;69.09
53041;BME280;39326;42.650;23.248;2022-09-12T06:16:07;92459.53;;;14.74;68.62
53041;BME280;39326;42.650;23.248;2022-09-12T06:18:34;92445.88;;;14.65;68.80
53041;BME280;39326;42.650;23.248;2022-09-12T06:21:05;92450.44;;;14.68;68.99
53041;BME280;39326;42.650;23.248;2022-09-12T06:23:31;92461.69;;;14.59;68.88
53041;BME280;39326;42.650;23.248;2022-09-12T06:25:56;92470.00;;;14.69;68.07
53041;BME280;39326;42.650;23.248;2022-09-12T06:28:22;92475.06;;;14.63;68.17
53041;BME280;39326;42.650;23.248;2022-09-12T06:30:47;92483.34;;;14.72;67.92
53041;BME280;39326;42.650;23.248;2022-09-12T06:33:14;92474.59;;;14.68;67.38
53041;BME280;39326;42.650;23.248;2022-09-12T06:35:39;92470.19;;;14.78;67.96
53041;BME280;39326;42.650;23.248;2022-09-12T06:38:05;92475.09;;;14.83;67.96
53041;BME280;39326;42.650;23.248;2022-09-12T06:40:31;92483.22;;;14.79;67.51
53041;BME280;39326;42.650;23.248;2022-09-12T06:42:57;92488.88;;;14.85;67.92
53041;BME280;39326;42.650;23.248;2022-09-12T06:45:22;92476.69;;;14.80;68.09
53041;BME280;39326;42.650;23.248;2022-09-12T06:47:48;92483.44;;;14.92;68.82
53041;BME280;39326;42.650;23.248;2022-09-12T06:50:13;92481.84;;;14.95;69.26
53041;BME280;39326;42.650;23.248;2022-09-12T06:52:39;92483.16;;;15.06;68.51
53041;BME280;39326;42.650;23.248;2022-09-12T06:55:04;92484.41;;;15.22;68.93
53041;BME280;39326;42.650;23.248;2022-09-12T06:57:30;92496.03;;;15.35;68.58
53041;BME280;39326;42.650;23.248;2022-09-12T07:00:04;92496.66;;;15.23;68.52
53041;BME280;39326;42.650;23.248;2022-09-12T07:02:30;92491.22;;;15.06;67.62
53041;BME280;39326;42.650;23.248;2022-09-12T07:04:56;92499.16;;;14.90;67.67
53041;BME280;39326;42.650;23.248;2022-09-12T07:07:22;92499.31;;;14.79;68.54
53041;BME280;39326;42.650;23.248;2022-09-12T07:09:48;92499.06;;;14.74;69.39
53041;BME280;39326;42.650;23.248;2022-09-12T07:12:14;92502.41;;;14.78;68.91
53041;BME280;39326;42.650;23.248;2022-09-12T07:14:40;92505.41;;;14.83;69.04
53041;BME280;39326;42.650;23.248;2022-09-12T07:17:05;92507.63;;;14.88;69.17
53041;BME280;39326;42.650;23.248;2022-09-12T07:19:31;92502.72;;;14.83;69.09
53041;BME280;39326;42.650;23.248;2022-09-12T07:21:57;92516.25;;;14.76;69.52
53041;BME280;39326;42.650;23.248;2022-09-12T07:24:22;92510.94;;;14.73;69.27
53041;BME280;39326;42.650;23.248;2022-09-12T07:26:48;92512.06;;;14.75;68.05
53041;BME280;39326;42.650;23.248;2022-09-12T07:29:15;92507.03;;;14.77;66.62
53041;BME280;39326;42.650;23.248;2022-09-12T07:31:41;92510.81;;;15.03;66.12
53041;BME280;39326;42.650;23.248;2022-09-12T07:34:06;92517.38;;;15.22;66.71
53041;BME280;39326;42.650;23.248;2022-09-12T07:36:32;92519.19;;;15.29;65.81
53041;BME280;39326;42.650;23.248;2022-09-12T07:38:58;92519.31;;;15.22;66.10
53041;BME280;39326;42.650;23.248;2022-09-12T07:41:26;92508.81;;;15.31;65.99
53041;BME280;39326;42.650;23.248;2022-09-12T07:43:53;92508.47;;;15.49;65.47
53041;BME280;39326;42.650;23.248;2022-09-12T07:46:19;92509.59;;;15.47;64.68
53041;BME280;39326;42.650;23.248;2022-09-12T07:48:49;92508.59;;;15.61;65.03
53041;BME280;39326;42.650;23.248;2022-09-12T07:51:15;92506.25;;;15.63;64.49
53041;BME280;39326;42.650;23.248;2022-09-12T07:53:41;92505.25;;;15.73;63.78
53041;BME280;39326;42.650;23.248;2022-09-12T07:56:08;92503.25;;;15.78;63.72
53041;BME280;39326;42.650;23.248;2022-09-12T07:58:35;92501.31;;;15.78;63.51
53041;BME280;39326;42.650;23.248;2022-09-12T08:01:05;92502.47;;;15.97;63.02
53041;BME280;39326;42.650;23.248;2022-09-12T08:03:33;92505.09;;;16.01;62.46
53041;BME280;39326;42.650;23.248;2022-09-12T08:06:07;92509.34;;;16.18;62.13
53041;BME280;39326;42.650;23.248;2022-09-12T08:08:34;92507.59;;;16.44;61.90
53041;BME280;39326;42.650;23.248;2022-09-12T08:11:01;92502.38;;;16.69;60.13
53041;BME280;39326;42.650;23.248;2022-09-12T08:13:28;92509.25;;;17.03;60.09
53041;BME280;39326;42.650;23.248;2022-09-12T08:15:58;92509.25;;;17.03;57.92
53041;BME280;39326;42.650;23.248;2022-09-12T08:18:25;92502.78;;;17.00;57.98
53041;BME280;39326;42.650;23.248;2022-09-12T08:20:58;92513.97;;;16.83;57.51
53041;BME280;39326;42.650;23.248;2022-09-12T08:23:24;92502.44;;;17.27;58.65
53041;BME280;39326;42.650;23.248;2022-09-12T08:25:50;92512.84;;;17.71;58.30
53041;BME280;39326;42.650;23.248;2022-09-12T08:28:16;92507.06;;;18.10;57.65
53041;BME280;39326;42.650;23.248;2022-09-12T08:30:41;92508.06;;;18.17;56.05
53041;BME280;39326;42.650;23.248;2022-09-12T08:33:07;92502.88;;;18.35;55.98
53041;BME280;39326;42.650;23.248;2022-09-12T08:35:32;92502.88;;;18.22;55.04
53041;BME280;39326;42.650;23.248;2022-09-12T08:37:58;92499.91;;;17.78;55.50
53041;BME280;39326;42.650;23.248;2022-09-12T08:40:23;92509.69;;;17.72;55.60
53041;BME280;39326;42.650;23.248;2022-09-12T08:43:05;92514.03;;;17.41;55.77
53041;BME280;39326;42.650;23.248;2022-09-12T08:45:35;92515.50;;;17.58;56.89
53041;BME280;39326;42.650;23.248;2022-09-12T08:48:09;92507.19;;;17.65;56.51
53041;BME280;39326;42.650;23.248;2022-09-12T08:50:36;92506.88;;;17.63;57.19
53041;BME280;39326;42.650;23.248;2022-09-12T08:53:09;92511.53;;;17.33;57.25
53041;BME280;39326;42.650;23.248;2022-09-12T08:55:43;92505.84;;;17.15;57.66
53041;BME280;39326;42.650;23.248;2022-09-12T08:58:20;92502.59;;;17.08;56.74
53041;BME280;39326;42.650;23.248;2022-09-12T09:01:00;92499.84;;;16.95;57.69
53041;BME280;39326;42.650;23.248;2022-09-12T09:08:49;92494.72;;;17.42;56.71
53041;BME280;39326;42.650;23.248;2022-09-12T09:11:25;92496.47;;;17.49;57.18
53041;BME280;39326;42.650;23.248;2022-09-12T09:17:10;92489.81;;;17.53;55.83
53041;BME280;39326;42.650;23.248;2022-09-12T09:19:41;92490.44;;;17.45;57.17
53041;BME280;39326;42.650;23.248;2022-09-12T09:22:16;92492.81;;;17.55;57.17
53041;BME280;39326;42.650;23.248;2022-09-12T09:24:50;92493.25;;;17.54;56.23
53041;BME280;39326;42.650;23.248;2022-09-12T09:27:36;92491.25;;;17.29;55.98
53041;BME280;39326;42.650;23.248;2022-09-12T09:30:12;92486.91;;;17.19;57.31
53041;BME280;39326;42.650;23.248;2022-09-12T09:32:40;92496.84;;;17.05;57.55
53041;BME280;39326;42.650;23.248;2022-09-12T09:35:44;92489.44;;;17.10;57.19
53041;BME280;39326;42.650;23.248;2022-09-12T09:38:21;92490.81;;;17.01;57.13
53041;BME280;39326;42.650;23.248;2022-09-12T09:40:50;92490.06;;;17.01;57.56
53041;BME280;39326;42.650;23.248;2022-09-12T09:43:22;92485.16;;;17.12;57.10
53041;BME280;39326;42.650;23.248;2022-09-12T09:45:49;92488.88;;;16.86;56.89
53041;BME280;39326;42.650;23.248;2022-09-12T09:48:34;92482.41;;;16.99;57.04
53041;BME280;39326;42.650;23.248;2022-09-12T09:51:03;92482.72;;;16.85;56.32
53041;BME280;39326;42.650;23.248;2022-09-12T09:56:39;92474.81;;;17.23;57.02
53041;BME280;39326;42.650;23.248;2022-09-12T09:59:28;92472.88;;;17.53;56.73
53041;BME280;39326;42.650;23.248;2022-09-12T10:04:51;92475.03;;;18.12;54.15
53041;BME280;39326;42.650;23.248;2022-09-12T10:07:18;92474.81;;;18.20;53.89
53041;BME280;39326;42.650;23.248;2022-09-12T10:10:16;92474.69;;;18.10;53.49
53041;BME280;39326;42.650;23.248;2022-09-12T10:12:42;92473.28;;;18.06;55.73
53041;BME280;39326;42.650;23.248;2022-09-12T10:15:22;92464.31;;;18.09;54.67
53041;BME280;39326;42.650;23.248;2022-09-12T10:17:50;92461.84;;;18.02;54.53
53041;BME280;39326;42.650;23.248;2022-09-12T10:22:59;92456.75;;;17.91;54.57
53041;BME280;39326;42.650;23.248;2022-09-12T10:25:25;92462.16;;;17.91;54.35
53041;BME280;39326;42.650;23.248;2022-09-12T10:27:56;92463.13;;;18.10;53.99
53041;BME280;39326;42.650;23.248;2022-09-12T10:30:23;92464.63;;;17.85;53.81
53041;BME280;39326;42.650;23.248;2022-09-12T10:32:51;92461.31;;;17.81;54.70
53041;BME280;39326;42.650;23.248;2022-09-12T10:35:23;92467.47;;;17.95;54.70
53041;BME280;39326;42.650;23.248;2022-09-12T10:37:56;92465.06;;;18.22;54.06
53041;BME280;39326;42.650;23.248;2022-09-12T10:40:33;92470.00;;;18.62;53.94
53041;BME280;39326;42.650;23.248;2022-09-12T10:43:01;92466.47;;;18.65;53.22
53041;BME280;39326;42.650;23.248;2022-09-12T10:45:34;92455.13;;;18.45;51.55
53041;BME280;39326;42.650;23.248;2022-09-12T10:48:40;92461.94;;;18.11;51.59
53041;BME280;39326;42.650;23.248;2022-09-12T10:51:04;92459.38;;;18.20;52.40
53041;BME280;39326;42.650;23.248;2022-09-12T10:53:40;92454.88;;;18.64;51.94
53041;BME280;39326;42.650;23.248;2022-09-12T10:56:12;92447.97;;;18.98;50.85
53041;BME280;39326;42.650;23.248;2022-09-12T11:04:28;92464.94;;;18.99;50.58
53041;BME280;39326;42.650;23.248;2022-09-12T11:17:53;92466.72;;;19.49;49.95
53041;BME280;39326;42.650;23.248;2022-09-12T11:20:34;92444.69;;;19.60;49.38
53041;BME280;39326;42.650;23.248;2022-09-12T11:26:21;92455.94;;;19.14;47.32
53041;BME280;39326;42.650;23.248;2022-09-12T11:34:33;92462.56;;;18.53;50.48
53041;BME280;39326;42.650;23.248;2022-09-12T11:39:49;92458.88;;;18.60;50.24
53041;BME280;39326;42.650;23.248;2022-09-12T11:42:21;92458.91;;;18.34;51.01
53041;BME280;39326;42.650;23.248;2022-09-12T11:44:56;92465.75;;;18.13;51.36
53041;BME280;39326;42.650;23.248;2022-09-12T11:47:27;92474.38;;;17.96;52.01
53041;BME280;39326;42.650;23.248;2022-09-12T11:49:54;92464.41;;;17.80;52.19
53041;BME280;39326;42.650;23.248;2022-09-12T11:52:27;92459.84;;;17.77;52.69
53041;BME280;39326;42.650;23.248;2022-09-12T11:55:06;92452.28;;;17.59;52.41
53041;BME280;39326;42.650;23.248;2022-09-12T11:57:37;92464.69;;;17.56;52.79
53041;BME280;39326;42.650;23.248;2022-09-12T12:06:31;92452.28;;;17.72;52.21
53041;BME280;39326;42.650;23.248;2022-09-12T12:08:26;92446.28;;;17.80;51.83
53041;BME280;39326;42.650;23.248;2022-09-12T12:11:02;92449.97;;;17.99;51.53
53041;BME280;39326;42.650;23.248;2022-09-12T12:16:24;92449.53;;;18.13;51.07
53041;BME280;39326;42.650;23.248;2022-09-12T12:18:55;92440.34;;;18.11;50.49
53041;BME280;39326;42.650;23.248;2022-09-12T12:36:54;92426.59;;;17.54;50.28
53041;BME280;39326;42.650;23.248;2022-09-12T12:42:01;92433.31;;;17.75;50.27
53041;BME280;39326;42.650;23.248;2022-09-12T12:47:27;92431.16;;;17.70;49.51
53041;BME280;39326;42.650;23.248;2022-09-12T12:52:46;92444.69;;;17.41;51.14
53041;BME280;39326;42.650;23.248;2022-09-12T12:58:04;92438.66;;;17.37;52.65
53041;BME280;39326;42.650;23.248;2022-09-12T13:00:34;92448.56;;;17.40;52.93
53041;BME280;39326;42.650;23.248;2022-09-12T13:03:01;92447.50;;;17.38;52.45
53041;BME280;39326;42.650;23.248;2022-09-12T13:05:49;92445.09;;;17.27;52.29
53041;BME280;39326;42.650;23.248;2022-09-12T13:08:25;92447.78;;;17.27;53.03
53041;BME280;39326;42.650;23.248;2022-09-12T13:11:07;92434.34;;;17.40;53.20
53041;BME280;39326;42.650;23.248;2022-09-12T13:13:40;92430.38;;;17.57;53.62
53041;BME280;39326;42.650;23.248;2022-09-12T13:16:10;92430.16;;;17.51;53.36
53041;BME280;39326;42.650;23.248;2022-09-12T13:18:43;92444.88;;;17.34;54.33
53041;BME280;39326;42.650;23.248;2022-09-12T13:23:38;92431.34;;;17.50;54.84
53041;BME280;39326;42.650;23.248;2022-09-12T13:26:12;92445.16;;;17.52;55.64
53041;BME280;39326;42.650;23.248;2022-09-12T13:28:38;92437.66;;;17.31;54.41
53041;BME280;39326;42.650;23.248;2022-09-12T13:31:23;92424.19;;;17.31;54.45
53041;BME280;39326;42.650;23.248;2022-09-12T13:33:52;92426.25;;;17.40;55.27
53041;BME280;39326;42.650;23.248;2022-09-12T13:44:55;92420.22;;;17.48;53.79
53041;BME280;39326;42.650;23.248;2022-09-12T13:47:32;92427.75;;;17.41;53.43
53041;BME280;39326;42.650;23.248;2022-09-12T13:49:59;92427.91;;;17.50;53.83
53041;BME280;39326;42.650;23.248;2022-09-12T13:52:29;92430.69;;;17.59;53.17
53041;BME280;39326;42.650;23.248;2022-09-12T13:54:57;92435.19;;;17.49;50.73
53041;BME280;39326;42.650;23.248;2022-09-12T13:57:31;92436.94;;;17.01;50.28
53041;BME280;39326;42.650;23.248;2022-09-12T13:59:57;92419.38;;;17.10;51.21
53041;BME280;39326;42.650;23.248;2022-09-12T14:02:26;92431.69;;;17.23;51.90
53041;BME280;39326;42.650;23.248;2022-09-12T14:04:53;92428.56;;;17.12;51.46
53041;BME280;39326;42.650;23.248;2022-09-12T14:10:44;92428.44;;;17.16;51.65
53041;BME280;39326;42.650;23.248;2022-09-12T14:13:19;92423.63;;;17.36;50.56
53041;BME280;39326;42.650;23.248;2022-09-12T14:15:47;92409.78;;;17.50;50.57
53041;BME280;39326;42.650;23.248;2022-09-12T14:18:22;92414.44;;;17.63;50.38
53041;BME280;39326;42.650;23.248;2022-09-12T14:20:48;92427.78;;;17.66;50.43
53041;BME280;39326;42.650;23.248;2022-09-12T14:23:23;92428.50;;;17.83;50.34
53041;BME280;39326;42.650;23.248;2022-09-12T14:25:52;92418.31;;;18.00;50.47
53041;BME280;39326;42.650;23.248;2022-09-12T14:28:19;92421.59;;;18.07;50.33
53041;BME280;39326;42.650;23.248;2022-09-12T14:31:05;92428.34;;;18.12;50.02
53041;BME280;39326;42.650;23.248;2022-09-12T14:33:45;92431.41;;;17.89;49.50
53041;BME280;39326;42.650;23.248;2022-09-12T14:36:22;92429.69;;;17.82;50.29
53041;BME280;39326;42.650;23.248;2022-09-12T14:38:54;92422.94;;;17.74;50.39
53041;BME280;39326;42.650;23.248;2022-09-12T14:41:32;92426.19;;;17.69;51.00
53041;BME280;39326;42.650;23.248;2022-09-12T14:44:01;92423.38;;;17.59;51.85
53041;BME280;39326;42.650;23.248;2022-09-12T14:46:37;92422.38;;;17.41;52.58
53041;BME280;39326;42.650;23.248;2022-09-12T14:49:19;92430.50;;;17.24;53.70
53041;BME280;39326;42.650;23.248;2022-09-12T14:51:58;92432.56;;;17.20;52.79
53041;BME280;39326;42.650;23.248;2022-09-12T14:57:27;92430.84;;;17.26;52.66
53041;BME280;39326;42.650;23.248;2022-09-12T15:00:07;92435.38;;;17.29;53.35
53041;BME280;39326;42.650;23.248;2022-09-12T15:02:33;92432.38;;;17.27;53.57
53041;BME280;39326;42.650;23.248;2022-09-12T15:07:51;92435.50;;;17.26;53.16
53041;BME280;39326;42.650;23.248;2022-09-12T15:10:30;92433.56;;;17.26;53.01
53041;BME280;39326;42.650;23.248;2022-09-12T15:15:39;92434.59;;;17.16;53.90
53041;BME280;39326;42.650;23.248;2022-09-12T15:18:05;92433.28;;;17.08;53.12
53041;BME280;39326;42.650;23.248;2022-09-12T15:20:32;92420.72;;;16.89;54.15
53041;BME280;39326;42.650;23.248;2022-09-12T15:22:58;92436.59;;;16.83;54.27
53041;BME280;39326;42.650;23.248;2022-09-12T15:25:23;92440.06;;;16.84;54.44
53041;BME280;39326;42.650;23.248;2022-09-12T15:27:50;92432.75;;;16.68;54.92
53041;BME280;39326;42.650;23.248;2022-09-12T15:30:17;92440.59;;;16.62;54.84
53041;BME280;39326;42.650;23.248;2022-09-12T15:32:43;92433.38;;;16.59;54.59
53041;BME280;39326;42.650;23.248;2022-09-12T15:35:21;92439.00;;;16.65;54.99
53041;BME280;39326;42.650;23.248;2022-09-12T15:37:48;92435.78;;;16.70;54.60
53041;BME280;39326;42.650;23.248;2022-09-12T15:40:13;92428.47;;;16.54;54.90